sensor_id;sensor_type;location;lat;lon;timestamp;temperature;humidity
12911;DHT22;6523;49.758;6.120;2023-05-10T00:00:51;11.90;99.90
12911;DHT22;6523;49.758;6.120;2023-05-10T00:03:16;11.80;99.90
12911;DHT22;6523;49.758;6.120;2023-05-10T00:05:42;11.80;99.90
12911;DHT22;6523;49.758;6.120;2023-05-10T00:08:08;11.70;99.90
12911;DHT22;6523;49.758;6.120;2023-05-10T00:10:33;11.70;99.90
12911;DHT22;6523;49.758;6.120;2023-05-10T00:12:59;11.70;99.90
12911;DHT22;6523;49.758;6.120;2023-05-10T00:15:24;11.70;99.90
12911;DHT22;6523;49.758;6.120;2023-05-10T00:17:50;11.60;99.90
12911;DHT22;6523;49.758;6.120;2023-05-10T00:20:15;11.60;99.90
12911;DHT22;6523;49.758;6.120;2023-05-10T00:22:41;11.70;99.90
12911;DHT22;6523;49.758;6.120;2023-05-10T00:25:07;11.70;99.90
12911;DHT22;6523;49.758;6.120;2023-05-10T00:27:33;11.60;99.90
12911;DHT22;6523;49.758;6.120;2023-05-10T00:29:58;11.60;99.90
12911;DHT22;6523;49.758;6.120;2023-05-10T00:32:24;11.60;99.90
12911;DHT22;6523;49.758;6.120;2023-05-10T00:34:49;11.60;99.90
12911;DHT22;6523;49.758;6.120;2023-05-10T00:37:16;11.60;99.90
12911;DHT22;6523;49.758;6.120;2023-05-10T00:39:41;11.60;99.90
12911;DHT22;6523;49.758;6.120;2023-05-10T00:42:07;11.60;99.90
12911;DHT22;6523;49.758;6.120;2023-05-10T00:44:32;11.60;99.90
12911;DHT22;6523;49.758;6.120;2023-05-10T00:46:58;11.50;99.90
12911;DHT22;6523;49.758;6.120;2023-05-10T00:49:24;11.50;99.90
12911;DHT22;6523;49.758;6.120;2023-05-10T00:51:50;11.60;99.90
12911;DHT22;6523;49.758;6.120;2023-05-10T00:54:16;11.50;99.90
12911;DHT22;6523;49.758;6.120;2023-05-10T00:56:41;11.50;99.90
12911;DHT22;6523;49.758;6.120;2023-05-10T00:59:08;11.40;99.90
12911;DHT22;6523;49.758;6.120;2023-05-10T01:01:35;11.40;99.90
12911;DHT22;6523;49.758;6.120;2023-05-10T01:04:01;11.50;99.90
12911;DHT22;6523;49.758;6.120;2023-05-10T01:06:27;11.50;99.90
12911;DHT22;6523;49.758;6.120;2023-05-10T01:08:53;11.40;99.90
12911;DHT22;6523;49.758;6.120;2023-05-10T01:11:18;11.30;99.90
12911;DHT22;6523;49.758;6.120;2023-05-10T01:13:50;11.40;99.90
12911;DHT22;6523;49.758;6.120;2023-05-10T01:16:17;11.40;99.90
12911;DHT22;6523;49.758;6.120;2023-05-10T01:18:43;11.40;99.90
12911;DHT22;6523;49.758;6.120;2023-05-10T01:21:36;11.40;99.90
12911;DHT22;6523;49.758;6.120;2023-05-10T01:24:25;11.50;99.90
12911;DHT22;6523;49.758;6.120;2023-05-10T01:27:35;11.50;99.90
12911;DHT22;6523;49.758;6.120;2023-05-10T01:38:03;11.70;99.90
12911;DHT22;6523;49.758;6.120;2023-05-10T01:40:35;11.70;99.90
12911;DHT22;6523;49.758;6.120;2023-05-10T01:43:04;11.70;99.90
12911;DHT22;6523;49.758;6.120;2023-05-10T01:45:45;11.70;99.90
12911;DHT22;6523;49.758;6.120;2023-05-10T01:48:14;11.70;99.90
12911;DHT22;6523;49.758;6.120;2023-05-10T01:50:43;11.70;99.90
12911;DHT22;6523;49.758;6.120;2023-05-10T01:53:10;11.80;99.90
12911;DHT22;6523;49.758;6.120;2023-05-10T01:55:46;11.80;99.90
12911;DHT22;6523;49.758;6.120;2023-05-10T01:58:32;11.80;99.90
12911;DHT22;6523;49.758;6.120;2023-05-10T02:01:01;11.80;99.90
12911;DHT22;6523;49.758;6.120;2023-05-10T02:03:29;11.80;99.90
12911;DHT22;6523;49.758;6.120;2023-05-10T02:05:56;11.80;99.90
12911;DHT22;6523;49.758;6.120;2023-05-10T02:08:23;11.90;99.90
12911;DHT22;6523;49.758;6.120;2023-05-10T02:10:51;11.90;99.90
12911;DHT22;6523;49.758;6.120;2023-05-10T02:13:18;11.90;99.90
12911;DHT22;6523;49.758;6.120;2023-05-10T02:15:47;11.90;99.90
12911;DHT22;6523;49.758;6.120;2023-05-10T02:18:13;11.90;99.90
12911;DHT22;6523;49.758;6.120;2023-05-10T02:20:41;11.90;99.90
12911;DHT22;6523;49.758;6.120;2023-05-10T02:23:07;11.90;99.90
12911;DHT22;6523;49.758;6.120;2023-05-10T02:25:34;11.90;99.90
12911;DHT22;6523;49.758;6.120;2023-05-10T02:28:03;11.90;99.90
12911;DHT22;6523;49.758;6.120;2023-05-10T02:30:31;11.90;99.90
12911;DHT22;6523;49.758;6.120;2023-05-10T02:32:57;11.90;99.90
12911;DHT22;6523;49.758;6.120;2023-05-10T02:35:25;11.90;99.90
12911;DHT22;6523;49.758;6.120;2023-05-10T02:37:52;11.90;99.90
12911;DHT22;6523;49.758;6.120;2023-05-10T02:40:19;11.90;99.90
12911;DHT22;6523;49.758;6.120;2023-05-10T02:42:47;11.90;99.90
12911;DHT22;6523;49.758;6.120;2023-05-10T02:45:18;12.00;99.90
12911;DHT22;6523;49.758;6.120;2023-05-10T02:47:44;11.90;99.90
12911;DHT22;6523;49.758;6.120;2023-05-10T02:50:10;11.90;99.90
12911;DHT22;6523;49.758;6.120;2023-05-10T02:52:44;12.00;99.90
12911;DHT22;6523;49.758;6.120;2023-05-10T02:55:13;12.00;99.90
12911;DHT22;6523;49.758;6.120;2023-05-10T02:57:46;12.00;99.90
12911;DHT22;6523;49.758;6.120;2023-05-10T03:00:14;12.00;99.90
12911;DHT22;6523;49.758;6.120;2023-05-10T03:02:39;12.00;99.90
12911;DHT22;6523;49.758;6.120;2023-05-10T03:05:05;12.00;99.90
12911;DHT22;6523;49.758;6.120;2023-05-10T03:07:32;12.00;99.90
12911;DHT22;6523;49.758;6.120;2023-05-10T03:09:58;12.00;99.90
12911;DHT22;6523;49.758;6.120;2023-05-10T03:15:11;12.00;99.90
12911;DHT22;6523;49.758;6.120;2023-05-10T03:18:02;12.00;99.90
12911;DHT22;6523;49.758;6.120;2023-05-10T03:20:36;11.90;99.90
12911;DHT22;6523;49.758;6.120;2023-05-10T03:23:24;11.90;99.90
12911;DHT22;6523;49.758;6.120;2023-05-10T03:25:52;11.90;99.90
12911;DHT22;6523;49.758;6.120;2023-05-10T03:28:19;11.80;99.90
12911;DHT22;6523;49.758;6.120;2023-05-10T03:30:46;11.90;99.90
12911;DHT22;6523;49.758;6.120;2023-05-10T03:33:12;11.80;99.90
12911;DHT22;6523;49.758;6.120;2023-05-10T03:35:40;11.80;99.90
12911;DHT22;6523;49.758;6.120;2023-05-10T03:38:06;11.70;99.90
12911;DHT22;6523;49.758;6.120;2023-05-10T03:40:31;11.80;99.90
12911;DHT22;6523;49.758;6.120;2023-05-10T03:43:00;11.80;99.90
12911;DHT22;6523;49.758;6.120;2023-05-10T03:45:26;11.70;99.90
12911;DHT22;6523;49.758;6.120;2023-05-10T03:47:52;11.70;99.90
12911;DHT22;6523;49.758;6.120;2023-05-10T03:50:18;11.60;99.90
12911;DHT22;6523;49.758;6.120;2023-05-10T03:52:43;11.60;99.90
12911;DHT22;6523;49.758;6.120;2023-05-10T03:55:10;11.60;99.90
12911;DHT22;6523;49.758;6.120;2023-05-10T03:57:35;11.50;99.90
12911;DHT22;6523;49.758;6.120;2023-05-10T04:00:01;11.50;99.90
12911;DHT22;6523;49.758;6.120;2023-05-10T04:02:27;11.40;99.90
12911;DHT22;6523;49.758;6.120;2023-05-10T04:04:53;11.40;99.90
12911;DHT22;6523;49.758;6.120;2023-05-10T04:07:18;11.30;99.90
12911;DHT22;6523;49.758;6.120;2023-05-10T04:09:44;11.30;99.90
12911;DHT22;6523;49.758;6.120;2023-05-10T04:12:10;11.30;99.90
12911;DHT22;6523;49.758;6.120;2023-05-10T04:14:35;11.30;99.90
12911;DHT22;6523;49.758;6.120;2023-05-10T04:17:01;11.30;99.90
12911;DHT22;6523;49.758;6.120;2023-05-10T04:19:30;11.30;99.90
12911;DHT22;6523;49.758;6.120;2023-05-10T04:21:56;11.30;99.90
12911;DHT22;6523;49.758;6.120;2023-05-10T04:24:21;11.30;99.90
12911;DHT22;6523;49.758;6.120;2023-05-10T04:26:47;11.30;99.90
12911;DHT22;6523;49.758;6.120;2023-05-10T04:29:12;11.40;99.90
12911;DHT22;6523;49.758;6.120;2023-05-10T04:31:38;11.40;99.90
12911;DHT22;6523;49.758;6.120;2023-05-10T04:34:03;11.40;99.90
12911;DHT22;6523;49.758;6.120;2023-05-10T04:36:29;11.40;99.90
12911;DHT22;6523;49.758;6.120;2023-05-10T04:38:55;11.40;99.90
12911;DHT22;6523;49.758;6.120;2023-05-10T04:41:20;11.30;99.90
12911;DHT22;6523;49.758;6.120;2023-05-10T04:43:46;11.40;99.90
12911;DHT22;6523;49.758;6.120;2023-05-10T04:46:14;11.40;99.90
12911;DHT22;6523;49.758;6.120;2023-05-10T04:48:39;11.50;99.90
12911;DHT22;6523;49.758;6.120;2023-05-10T04:51:05;11.40;99.90
12911;DHT22;6523;49.758;6.120;2023-05-10T04:53:31;11.50;99.90
12911;DHT22;6523;49.758;6.120;2023-05-10T04:55:57;11.60;99.90
12911;DHT22;6523;49.758;6.120;2023-05-10T04:58:23;11.60;99.90
12911;DHT22;6523;49.758;6.120;2023-05-10T05:00:48;11.60;99.90
12911;DHT22;6523;49.758;6.120;2023-05-10T05:03:14;11.50;99.90
12911;DHT22;6523;49.758;6.120;2023-05-10T05:05:40;11.60;99.90
12911;DHT22;6523;49.758;6.120;2023-05-10T05:08:05;11.50;99.90
12911;DHT22;6523;49.758;6.120;2023-05-10T05:10:31;11.50;99.90
12911;DHT22;6523;49.758;6.120;2023-05-10T05:12:56;11.50;99.90
12911;DHT22;6523;49.758;6.120;2023-05-10T05:15:22;11.30;99.90
12911;DHT22;6523;49.758;6.120;2023-05-10T05:17:47;11.40;99.90
12911;DHT22;6523;49.758;6.120;2023-05-10T05:20:13;11.30;99.90
12911;DHT22;6523;49.758;6.120;2023-05-10T05:22:38;11.30;99.90
12911;DHT22;6523;49.758;6.120;2023-05-10T05:25:05;11.30;99.90
12911;DHT22;6523;49.758;6.120;2023-05-10T05:27:31;11.30;99.90
12911;DHT22;6523;49.758;6.120;2023-05-10T05:29:57;11.40;99.90
12911;DHT22;6523;49.758;6.120;2023-05-10T05:32:23;11.40;99.90
12911;DHT22;6523;49.758;6.120;2023-05-10T05:34:49;11.50;99.90
12911;DHT22;6523;49.758;6.120;2023-05-10T05:37:19;11.50;99.90
12911;DHT22;6523;49.758;6.120;2023-05-10T05:39:45;11.40;99.90
12911;DHT22;6523;49.758;6.120;2023-05-10T05:42:12;11.50;99.90
12911;DHT22;6523;49.758;6.120;2023-05-10T05:44:38;11.50;99.90
12911;DHT22;6523;49.758;6.120;2023-05-10T05:47:04;11.50;99.90
12911;DHT22;6523;49.758;6.120;2023-05-10T05:49:29;11.50;99.90
12911;DHT22;6523;49.758;6.120;2023-05-10T05:52:01;11.60;99.90
12911;DHT22;6523;49.758;6.120;2023-05-10T05:54:27;11.70;99.90
12911;DHT22;6523;49.758;6.120;2023-05-10T05:56:57;11.60;99.90
12911;DHT22;6523;49.758;6.120;2023-05-10T05:59:23;11.80;99.90
12911;DHT22;6523;49.758;6.120;2023-05-10T06:01:49;11.70;99.90
12911;DHT22;6523;49.758;6.120;2023-05-10T06:04:15;11.50;99.90
12911;DHT22;6523;49.758;6.120;2023-05-10T06:06:41;11.50;99.90
12911;DHT22;6523;49.758;6.120;2023-05-10T06:09:07;11.50;99.90
12911;DHT22;6523;49.758;6.120;2023-05-10T06:11:33;11.60;99.90
12911;DHT22;6523;49.758;6.120;2023-05-10T06:13:59;11.70;99.90
12911;DHT22;6523;49.758;6.120;2023-05-10T06:16:24;11.70;99.90
12911;DHT22;6523;49.758;6.120;2023-05-10T06:18:50;11.70;99.90
12911;DHT22;6523;49.758;6.120;2023-05-10T06:21:16;11.80;99.90
12911;DHT22;6523;49.758;6.120;2023-05-10T06:23:41;11.90;99.90
12911;DHT22;6523;49.758;6.120;2023-05-10T06:26:07;11.90;99.90
12911;DHT22;6523;49.758;6.120;2023-05-10T06:28:33;12.00;99.90
12911;DHT22;6523;49.758;6.120;2023-05-10T06:30:59;11.80;99.90
12911;DHT22;6523;49.758;6.120;2023-05-10T06:33:25;11.90;99.90
12911;DHT22;6523;49.758;6.120;2023-05-10T06:35:51;12.00;99.90
12911;DHT22;6523;49.758;6.120;2023-05-10T06:38:16;12.00;99.90
12911;DHT22;6523;49.758;6.120;2023-05-10T06:40:42;11.90;99.90
12911;DHT22;6523;49.758;6.120;2023-05-10T06:43:08;12.00;99.90
12911;DHT22;6523;49.758;6.120;2023-05-10T06:45:34;12.00;99.90
12911;DHT22;6523;49.758;6.120;2023-05-10T06:47:59;12.10;99.90
12911;DHT22;6523;49.758;6.120;2023-05-10T06:50:25;12.20;99.90
12911;DHT22;6523;49.758;6.120;2023-05-10T06:52:51;12.10;99.90
12911;DHT22;6523;49.758;6.120;2023-05-10T06:55:16;12.10;99.90
12911;DHT22;6523;49.758;6.120;2023-05-10T06:57:42;12.00;99.90
12911;DHT22;6523;49.758;6.120;2023-05-10T07:00:08;12.00;99.90
12911;DHT22;6523;49.758;6.120;2023-05-10T07:02:35;12.00;99.90
12911;DHT22;6523;49.758;6.120;2023-05-10T07:05:00;12.00;99.90
12911;DHT22;6523;49.758;6.120;2023-05-10T07:07:26;12.10;99.90
12911;DHT22;6523;49.758;6.120;2023-05-10T07:09:52;12.10;99.90
12911;DHT22;6523;49.758;6.120;2023-05-10T07:12:17;12.30;99.90
12911;DHT22;6523;49.758;6.120;2023-05-10T07:14:43;12.20;99.90
12911;DHT22;6523;49.758;6.120;2023-05-10T07:17:09;12.30;99.90
12911;DHT22;6523;49.758;6.120;2023-05-10T07:19:34;12.30;99.90
12911;DHT22;6523;49.758;6.120;2023-05-10T07:22:00;12.50;99.90
12911;DHT22;6523;49.758;6.120;2023-05-10T07:24:26;12.50;99.90
12911;DHT22;6523;49.758;6.120;2023-05-10T07:26:51;12.90;99.90
12911;DHT22;6523;49.758;6.120;2023-05-10T07:29:17;12.70;99.90
12911;DHT22;6523;49.758;6.120;2023-05-10T07:31:42;12.70;99.90
12911;DHT22;6523;49.758;6.120;2023-05-10T07:34:08;12.70;99.90
12911;DHT22;6523;49.758;6.120;2023-05-10T07:36:34;12.80;99.90
12911;DHT22;6523;49.758;6.120;2023-05-10T07:39:00;12.90;99.90
12911;DHT22;6523;49.758;6.120;2023-05-10T07:41:26;12.90;99.90
12911;DHT22;6523;49.758;6.120;2023-05-10T07:43:51;13.10;99.90
12911;DHT22;6523;49.758;6.120;2023-05-10T07:46:17;13.10;99.90
12911;DHT22;6523;49.758;6.120;2023-05-10T07:48:44;13.20;99.90
12911;DHT22;6523;49.758;6.120;2023-05-10T07:51:10;13.70;99.90
12911;DHT22;6523;49.758;6.120;2023-05-10T07:53:36;13.80;99.90
12911;DHT22;6523;49.758;6.120;2023-05-10T07:56:20;13.70;99.90
12911;DHT22;6523;49.758;6.120;2023-05-10T07:58:46;13.60;99.90
12911;DHT22;6523;49.758;6.120;2023-05-10T08:01:12;13.00;99.90
12911;DHT22;6523;49.758;6.120;2023-05-10T08:03:37;12.90;99.90
12911;DHT22;6523;49.758;6.120;2023-05-10T08:06:03;12.70;99.90
12911;DHT22;6523;49.758;6.120;2023-05-10T08:08:28;12.40;99.90
12911;DHT22;6523;49.758;6.120;2023-05-10T08:10:54;12.20;99.90
12911;DHT22;6523;49.758;6.120;2023-05-10T08:13:20;12.00;99.90
12911;DHT22;6523;49.758;6.120;2023-05-10T08:15:46;12.10;99.90
12911;DHT22;6523;49.758;6.120;2023-05-10T08:18:12;11.90;99.90
12911;DHT22;6523;49.758;6.120;2023-05-10T08:20:37;12.10;99.90
12911;DHT22;6523;49.758;6.120;2023-05-10T08:23:03;12.10;99.90
12911;DHT22;6523;49.758;6.120;2023-05-10T08:25:28;12.00;99.90
12911;DHT22;6523;49.758;6.120;2023-05-10T08:27:54;11.90;99.90
12911;DHT22;6523;49.758;6.120;2023-05-10T08:30:19;12.00;99.90
12911;DHT22;6523;49.758;6.120;2023-05-10T08:32:45;12.10;99.90
12911;DHT22;6523;49.758;6.120;2023-05-10T08:35:10;11.80;99.90
12911;DHT22;6523;49.758;6.120;2023-05-10T08:37:36;12.10;99.90
12911;DHT22;6523;49.758;6.120;2023-05-10T08:40:01;12.10;99.90
12911;DHT22;6523;49.758;6.120;2023-05-10T08:42:30;12.10;99.90
12911;DHT22;6523;49.758;6.120;2023-05-10T08:45:00;12.30;99.90
12911;DHT22;6523;49.758;6.120;2023-05-10T08:47:27;12.20;99.90
12911;DHT22;6523;49.758;6.120;2023-05-10T08:49:53;12.00;99.90
12911;DHT22;6523;49.758;6.120;2023-05-10T08:52:20;12.20;99.90
12911;DHT22;6523;49.758;6.120;2023-05-10T08:54:47;12.00;99.90
12911;DHT22;6523;49.758;6.120;2023-05-10T08:57:12;12.10;99.90
12911;DHT22;6523;49.758;6.120;2023-05-10T08:59:38;12.10;99.90
12911;DHT22;6523;49.758;6.120;2023-05-10T09:02:05;12.00;99.90
12911;DHT22;6523;49.758;6.120;2023-05-10T09:04:31;12.00;99.90
12911;DHT22;6523;49.758;6.120;2023-05-10T09:06:57;12.00;99.90
12911;DHT22;6523;49.758;6.120;2023-05-10T09:09:23;12.10;99.90
12911;DHT22;6523;49.758;6.120;2023-05-10T09:11:51;12.30;99.90
12911;DHT22;6523;49.758;6.120;2023-05-10T09:14:17;12.20;99.90
12911;DHT22;6523;49.758;6.120;2023-05-10T09:16:44;12.20;99.90
12911;DHT22;6523;49.758;6.120;2023-05-10T09:19:10;12.50;99.90
12911;DHT22;6523;49.758;6.120;2023-05-10T09:21:36;12.70;99.90
12911;DHT22;6523;49.758;6.120;2023-05-10T09:24:08;12.60;99.90
12911;DHT22;6523;49.758;6.120;2023-05-10T09:26:34;12.80;99.90
12911;DHT22;6523;49.758;6.120;2023-05-10T09:29:01;12.80;99.90
12911;DHT22;6523;49.758;6.120;2023-05-10T09:31:48;12.90;99.90
12911;DHT22;6523;49.758;6.120;2023-05-10T09:34:30;12.90;99.90
12911;DHT22;6523;49.758;6.120;2023-05-10T09:36:57;13.10;99.90
12911;DHT22;6523;49.758;6.120;2023-05-10T09:39:34;13.00;99.90
12911;DHT22;6523;49.758;6.120;2023-05-10T09:42:02;12.90;99.90
12911;DHT22;6523;49.758;6.120;2023-05-10T09:44:29;12.80;99.90
12911;DHT22;6523;49.758;6.120;2023-05-10T09:46:54;13.10;99.90
12911;DHT22;6523;49.758;6.120;2023-05-10T09:49:21;13.30;99.90
12911;DHT22;6523;49.758;6.120;2023-05-10T09:51:47;13.40;99.90
12911;DHT22;6523;49.758;6.120;2023-05-10T09:54:22;13.20;99.90
12911;DHT22;6523;49.758;6.120;2023-05-10T09:56:49;13.20;99.90
12911;DHT22;6523;49.758;6.120;2023-05-10T09:59:14;13.40;99.90
12911;DHT22;6523;49.758;6.120;2023-05-10T10:01:40;13.50;99.90
12911;DHT22;6523;49.758;6.120;2023-05-10T10:04:08;13.30;99.90
12911;DHT22;6523;49.758;6.120;2023-05-10T10:06:37;13.10;99.90
12911;DHT22;6523;49.758;6.120;2023-05-10T10:09:04;13.10;99.90
12911;DHT22;6523;49.758;6.120;2023-05-10T10:11:29;13.00;99.90
12911;DHT22;6523;49.758;6.120;2023-05-10T10:13:55;13.00;99.90
12911;DHT22;6523;49.758;6.120;2023-05-10T10:16:21;12.90;99.90
12911;DHT22;6523;49.758;6.120;2023-05-10T10:18:47;13.10;99.90
12911;DHT22;6523;49.758;6.120;2023-05-10T10:21:13;13.20;99.90
12911;DHT22;6523;49.758;6.120;2023-05-10T10:23:40;13.20;99.90
12911;DHT22;6523;49.758;6.120;2023-05-10T10:26:06;12.90;99.90
12911;DHT22;6523;49.758;6.120;2023-05-10T10:29:00;13.10;99.90
12911;DHT22;6523;49.758;6.120;2023-05-10T10:31:47;13.00;99.90
12911;DHT22;6523;49.758;6.120;2023-05-10T10:34:29;13.10;99.90
12911;DHT22;6523;49.758;6.120;2023-05-10T10:36:56;13.50;99.90
12911;DHT22;6523;49.758;6.120;2023-05-10T10:39:23;13.50;99.90
12911;DHT22;6523;49.758;6.120;2023-05-10T10:41:55;13.60;99.90
12911;DHT22;6523;49.758;6.120;2023-05-10T10:52:24;13.70;99.90
12911;DHT22;6523;49.758;6.120;2023-05-10T10:54:58;14.20;99.90
12911;DHT22;6523;49.758;6.120;2023-05-10T10:57:25;14.10;99.90
12911;DHT22;6523;49.758;6.120;2023-05-10T10:59:53;13.60;99.90
12911;DHT22;6523;49.758;6.120;2023-05-10T11:02:44;13.40;99.90
12911;DHT22;6523;49.758;6.120;2023-05-10T11:07:55;13.50;99.90
12911;DHT22;6523;49.758;6.120;2023-05-10T11:10:21;13.80;99.90
12911;DHT22;6523;49.758;6.120;2023-05-10T11:13:04;14.10;99.90
12911;DHT22;6523;49.758;6.120;2023-05-10T11:15:38;14.20;99.90
12911;DHT22;6523;49.758;6.120;2023-05-10T11:20:43;14.10;99.90
12911;DHT22;6523;49.758;6.120;2023-05-10T11:23:13;14.40;99.90
12911;DHT22;6523;49.758;6.120;2023-05-10T11:25:45;14.10;99.90
12911;DHT22;6523;49.758;6.120;2023-05-10T11:28:11;14.30;99.90
12911;DHT22;6523;49.758;6.120;2023-05-10T11:30:41;14.30;99.90
12911;DHT22;6523;49.758;6.120;2023-05-10T11:33:07;14.30;99.90
12911;DHT22;6523;49.758;6.120;2023-05-10T11:35:40;14.60;99.90
12911;DHT22;6523;49.758;6.120;2023-05-10T11:38:07;14.70;99.90
12911;DHT22;6523;49.758;6.120;2023-05-10T11:40:33;14.90;99.90
12911;DHT22;6523;49.758;6.120;2023-05-10T11:42:59;15.20;99.90
12911;DHT22;6523;49.758;6.120;2023-05-10T11:45:25;14.80;99.90
12911;DHT22;6523;49.758;6.120;2023-05-10T11:47:51;14.80;99.90
12911;DHT22;6523;49.758;6.120;2023-05-10T11:50:17;14.60;99.90
12911;DHT22;6523;49.758;6.120;2023-05-10T11:52:43;14.60;99.90
12911;DHT22;6523;49.758;6.120;2023-05-10T11:55:08;14.80;99.90
12911;DHT22;6523;49.758;6.120;2023-05-10T11:57:35;15.10;99.90
12911;DHT22;6523;49.758;6.120;2023-05-10T12:00:01;14.80;99.90
12911;DHT22;6523;49.758;6.120;2023-05-10T12:02:29;14.70;99.90
12911;DHT22;6523;49.758;6.120;2023-05-10T12:04:55;14.50;99.90
12911;DHT22;6523;49.758;6.120;2023-05-10T12:07:21;14.70;99.90
12911;DHT22;6523;49.758;6.120;2023-05-10T12:10:10;14.80;99.90
12911;DHT22;6523;49.758;6.120;2023-05-10T12:12:42;14.50;99.90
12911;DHT22;6523;49.758;6.120;2023-05-10T12:15:17;14.80;99.90
12911;DHT22;6523;49.758;6.120;2023-05-10T12:17:45;15.10;99.90
12911;DHT22;6523;49.758;6.120;2023-05-10T12:22:54;15.00;99.90
12911;DHT22;6523;49.758;6.120;2023-05-10T12:25:22;15.10;99.90
12911;DHT22;6523;49.758;6.120;2023-05-10T12:27:56;15.10;99.90
12911;DHT22;6523;49.758;6.120;2023-05-10T12:30:26;14.80;99.90
12911;DHT22;6523;49.758;6.120;2023-05-10T12:32:53;15.00;99.90
12911;DHT22;6523;49.758;6.120;2023-05-10T12:35:19;15.00;99.90
12911;DHT22;6523;49.758;6.120;2023-05-10T12:37:50;14.90;99.90
12911;DHT22;6523;49.758;6.120;2023-05-10T12:40:15;15.00;99.90
12911;DHT22;6523;49.758;6.120;2023-05-10T12:42:41;15.60;99.90
12911;DHT22;6523;49.758;6.120;2023-05-10T12:45:08;15.60;99.90
12911;DHT22;6523;49.758;6.120;2023-05-10T12:47:34;15.80;99.90
12911;DHT22;6523;49.758;6.120;2023-05-10T12:50:00;15.70;99.90
12911;DHT22;6523;49.758;6.120;2023-05-10T12:52:27;15.80;99.90
12911;DHT22;6523;49.758;6.120;2023-05-10T12:54:53;15.40;99.90
12911;DHT22;6523;49.758;6.120;2023-05-10T12:57:20;14.80;99.90
12911;DHT22;6523;49.758;6.120;2023-05-10T12:59:46;14.90;99.90
12911;DHT22;6523;49.758;6.120;2023-05-10T13:02:11;15.00;99.90
12911;DHT22;6523;49.758;6.120;2023-05-10T13:04:37;15.10;99.90
12911;DHT22;6523;49.758;6.120;2023-05-10T13:07:06;15.60;99.90
12911;DHT22;6523;49.758;6.120;2023-05-10T13:09:31;16.20;99.90
12911;DHT22;6523;49.758;6.120;2023-05-10T13:11:57;16.90;99.90
12911;DHT22;6523;49.758;6.120;2023-05-10T13:14:22;16.70;99.90
12911;DHT22;6523;49.758;6.120;2023-05-10T13:16:48;16.30;99.90
12911;DHT22;6523;49.758;6.120;2023-05-10T13:19:14;16.90;99.90
12911;DHT22;6523;49.758;6.120;2023-05-10T13:21:39;17.90;99.90
12911;DHT22;6523;49.758;6.120;2023-05-10T13:24:07;18.90;99.90
12911;DHT22;6523;49.758;6.120;2023-05-10T13:26:32;18.70;99.90
12911;DHT22;6523;49.758;6.120;2023-05-10T13:28:58;18.90;99.90
12911;DHT22;6523;49.758;6.120;2023-05-10T13:31:24;19.50;99.90
12911;DHT22;6523;49.758;6.120;2023-05-10T13:33:49;18.00;99.90
12911;DHT22;6523;49.758;6.120;2023-05-10T13:36:15;17.60;99.90
12911;DHT22;6523;49.758;6.120;2023-05-10T13:38:40;16.80;99.90
12911;DHT22;6523;49.758;6.120;2023-05-10T13:41:06;16.50;99.90
12911;DHT22;6523;49.758;6.120;2023-05-10T13:43:31;16.20;99.90
12911;DHT22;6523;49.758;6.120;2023-05-10T13:45:57;16.20;99.90
12911;DHT22;6523;49.758;6.120;2023-05-10T13:48:23;17.00;99.90
12911;DHT22;6523;49.758;6.120;2023-05-10T13:50:48;16.90;99.90
12911;DHT22;6523;49.758;6.120;2023-05-10T13:53:14;17.80;99.90
12911;DHT22;6523;49.758;6.120;2023-05-10T13:55:40;17.90;99.90
12911;DHT22;6523;49.758;6.120;2023-05-10T13:58:06;17.30;99.90
12911;DHT22;6523;49.758;6.120;2023-05-10T14:00:32;17.00;99.90
12911;DHT22;6523;49.758;6.120;2023-05-10T14:02:57;16.90;99.90
12911;DHT22;6523;49.758;6.120;2023-05-10T14:05:23;19.30;99.90
12911;DHT22;6523;49.758;6.120;2023-05-10T14:07:49;18.90;99.90
12911;DHT22;6523;49.758;6.120;2023-05-10T14:10:15;18.10;99.90
12911;DHT22;6523;49.758;6.120;2023-05-10T14:12:41;18.80;99.90
12911;DHT22;6523;49.758;6.120;2023-05-10T14:15:07;18.90;99.90
12911;DHT22;6523;49.758;6.120;2023-05-10T14:17:32;18.60;99.90
12911;DHT22;6523;49.758;6.120;2023-05-10T14:19:58;19.00;99.90
12911;DHT22;6523;49.758;6.120;2023-05-10T14:22:24;19.10;99.90
12911;DHT22;6523;49.758;6.120;2023-05-10T14:24:49;20.20;99.90
12911;DHT22;6523;49.758;6.120;2023-05-10T14:27:15;18.90;99.90
12911;DHT22;6523;49.758;6.120;2023-05-10T14:29:41;19.20;99.90
12911;DHT22;6523;49.758;6.120;2023-05-10T14:32:07;20.40;99.90
12911;DHT22;6523;49.758;6.120;2023-05-10T14:34:32;19.30;99.90
12911;DHT22;6523;49.758;6.120;2023-05-10T14:36:58;18.20;99.90
12911;DHT22;6523;49.758;6.120;2023-05-10T14:39:24;17.30;99.90
12911;DHT22;6523;49.758;6.120;2023-05-10T14:41:49;17.80;99.90
12911;DHT22;6523;49.758;6.120;2023-05-10T14:44:16;17.50;99.90
12911;DHT22;6523;49.758;6.120;2023-05-10T14:46:42;17.30;99.90
12911;DHT22;6523;49.758;6.120;2023-05-10T14:49:07;17.10;99.90
12911;DHT22;6523;49.758;6.120;2023-05-10T14:51:33;17.00;99.90
12911;DHT22;6523;49.758;6.120;2023-05-10T14:53:59;16.80;99.90
12911;DHT22;6523;49.758;6.120;2023-05-10T14:56:24;16.70;99.90
12911;DHT22;6523;49.758;6.120;2023-05-10T14:58:51;16.50;99.90
12911;DHT22;6523;49.758;6.120;2023-05-10T15:01:17;16.30;99.90
12911;DHT22;6523;49.758;6.120;2023-05-10T15:03:43;16.10;99.90
12911;DHT22;6523;49.758;6.120;2023-05-10T15:06:09;16.20;99.90
12911;DHT22;6523;49.758;6.120;2023-05-10T15:08:37;16.30;99.90
12911;DHT22;6523;49.758;6.120;2023-05-10T15:11:05;16.40;99.90
12911;DHT22;6523;49.758;6.120;2023-05-10T15:13:34;16.30;99.90
12911;DHT22;6523;49.758;6.120;2023-05-10T15:16:10;17.10;99.90
12911;DHT22;6523;49.758;6.120;2023-05-10T15:18:56;17.60;99.90
12911;DHT22;6523;49.758;6.120;2023-05-10T15:21:21;18.50;99.90
12911;DHT22;6523;49.758;6.120;2023-05-10T15:23:47;18.40;99.90
12911;DHT22;6523;49.758;6.120;2023-05-10T15:26:12;18.50;99.90
12911;DHT22;6523;49.758;6.120;2023-05-10T15:28:38;19.20;99.90
12911;DHT22;6523;49.758;6.120;2023-05-10T15:31:03;17.50;99.90
12911;DHT22;6523;49.758;6.120;2023-05-10T15:33:29;17.10;99.90
12911;DHT22;6523;49.758;6.120;2023-05-10T15:35:54;17.60;99.90
12911;DHT22;6523;49.758;6.120;2023-05-10T15:38:20;17.50;99.90
12911;DHT22;6523;49.758;6.120;2023-05-10T15:40:46;17.20;99.90
12911;DHT22;6523;49.758;6.120;2023-05-10T15:43:12;16.70;99.90
12911;DHT22;6523;49.758;6.120;2023-05-10T15:45:37;16.50;99.90
12911;DHT22;6523;49.758;6.120;2023-05-10T15:48:03;16.60;99.90
12911;DHT22;6523;49.758;6.120;2023-05-10T15:50:29;17.00;99.90
12911;DHT22;6523;49.758;6.120;2023-05-10T15:52:54;17.30;99.90
12911;DHT22;6523;49.758;6.120;2023-05-10T15:55:20;18.90;99.90
12911;DHT22;6523;49.758;6.120;2023-05-10T15:57:46;19.20;99.90
12911;DHT22;6523;49.758;6.120;2023-05-10T16:00:13;19.80;99.90
12911;DHT22;6523;49.758;6.120;2023-05-10T16:02:40;18.90;99.90
12911;DHT22;6523;49.758;6.120;2023-05-10T16:05:06;18.70;99.90
12911;DHT22;6523;49.758;6.120;2023-05-10T16:07:32;19.20;99.90
12911;DHT22;6523;49.758;6.120;2023-05-10T16:09:57;19.20;99.90
12911;DHT22;6523;49.758;6.120;2023-05-10T16:12:23;19.30;99.90